Time;durP1;ratioP1;P1;durP2;ratioP2;P2;SDS_P1;SDS_P2;PMS_P1;PMS_P2;Temp;Humidity;BMP_temperature;BMP_pressure;BME280_temperature;BME280_humidity;BME280_pressure;Samples;Min_cycle;Max_cycle;Signal;HPM_P1;HPM_P2
2021/03/05 00:02:42;;;;;;;;;28.75;28.75;;;;;7.27;77.15;100903.50;5038503;28;11619;-77
2021/03/05 00:05:39;;;;;;;;;29.50;20.50;;;;;7.22;77.50;100901.66;5034264;28;11596;-77
2021/03/05 00:08:35;;;;;;;;;35.00;34.75;;;;;7.24;77.88;100895.84;5035279;28;11619;-76
2021/03/05 00:11:31;;;;;;;;;30.25;26.50;;;;;7.28;78.14;100896.06;5035259;28;11620;-74
2021/03/05 00:14:27;;;;;;;;;32.75;32.75;;;;;7.36;77.64;100895.34;5036368;28;11696;-76
2021/03/05 00:17:23;;;;;;;;;36.00;34.00;;;;;7.32;78.11;100880.59;5037728;28;12438;-75
2021/03/05 00:19:51;;;;;;;;;23.50;23.25;;;;;7.36;77.94;100873.34;5018227;28;11122;-75
2021/03/05 00:22:19;;;;;;;;;29.50;28.25;;;;;7.26;78.31;100874.34;5019017;28;11621;-76
2021/03/05 00:25:16;;;;;;;;;27.50;27.50;;;;;7.29;78.47;100862.75;5035857;28;12356;-76
2021/03/05 00:28:12;;;;;;;;;33.00;30.50;;;;;7.32;78.44;100875.91;5019711;28;11607;-76
2021/03/05 00:31:07;;;;;;;;;32.75;32.75;;;;;7.36;78.23;100857.66;5019761;28;12401;-76
2021/03/05 00:34:03;;;;;;;;;25.75;25.75;;;;;7.35;78.62;100856.00;5034106;28;12412;-76
2021/03/05 00:36:45;;;;;;;;;34.25;32.50;;;;;7.39;78.67;100857.06;5032573;28;11638;-76
2021/03/05 00:39:41;;;;;;;;;32.75;32.25;;;;;7.38;78.64;100855.44;5021684;28;11617;-75
2021/03/05 00:42:38;;;;;;;;;30.25;29.25;;;;;7.22;79.45;100854.09;5020931;28;11712;-76
2021/03/05 00:45:08;;;;;;;;;36.25;34.75;;;;;7.29;79.67;100856.44;5034301;28;11632;-77
2021/03/05 00:48:04;;;;;;;;;29.75;27.25;;;;;7.36;79.07;100857.66;5034453;28;11615;-77
2021/03/05 00:50:59;;;;;;;;;32.25;32.25;;;;;7.44;78.87;100856.16;5034034;28;11667;-77
2021/03/05 00:53:55;;;;;;;;;26.50;26.50;;;;;7.37;78.55;100859.28;5019632;28;11665;-77
2021/03/05 00:56:50;;;;;;;;;35.50;32.75;;;;;7.34;79.03;100856.31;5033240;28;11627;-77
2021/03/05 00:59:46;;;;;;;;;32.25;32.00;;;;;7.40;78.62;100860.63;5031620;28;11620;-77
2021/03/05 01:02:29;;;;;;;;;33.25;33.25;;;;;7.55;78.34;100867.75;5017657;28;11636;-77
2021/03/05 01:05:26;;;;;;;;;32.25;32.25;;;;;7.52;78.16;100871.94;5021649;28;11671;-76
2021/03/05 01:08:22;;;;;;;;;29.00;28.25;;;;;7.48;78.08;100865.41;5033319;28;11600;-77
2021/03/05 01:10:51;;;;;;;;;18.75;18.75;;;;;7.53;77.79;100862.56;5001105;28;12391;-76
2021/03/05 01:13:47;;;;;;;;;34.25;33.75;;;;;7.53;77.48;100860.63;5031119;28;11612;-76
2021/03/05 01:16:43;;;;;;;;;32.50;31.25;;;;;7.43;78.13;100860.81;5033818;28;11763;-76
2021/03/05 01:19:38;;;;;;;;;36.75;34.75;;;;;7.00;81.06;100860.28;5035813;28;11600;-76
2021/03/05 01:22:34;;;;;;;;;26.75;26.50;;;;;7.02;82.36;100858.03;5031999;28;11619;-76
2021/03/05 01:25:20;;;;;;;;;37.75;35.75;;;;;7.36;80.83;100854.91;5034180;28;11616;-77
2021/03/05 01:28:16;;;;;;;;;35.00;34.75;;;;;7.21;81.64;100866.22;5019657;28;11587;-76
2021/03/05 01:31:15;;;;;;;;;30.50;29.00;;;;;7.19;82.02;100854.69;5031546;28;11700;-75
2021/03/05 01:33:42;;;;;;;;;35.75;35.75;;;;;7.34;81.88;100848.88;5035445;28;11607;-76
2021/03/05 01:36:38;;;;;;;;;31.50;31.50;;;;;7.33;82.00;100843.69;5032173;28;11621;-76
2021/03/05 01:39:33;;;;;;;;;32.25;31.50;;;;;7.64;80.16;100838.38;5032106;28;12403;-76
2021/03/05 01:42:29;;;;;;;;;35.50;32.75;;;;;7.52;79.86;100836.97;5031027;28;11611;-76
2021/03/05 01:45:30;;;;;;;;;33.00;32.00;;;;;7.63;79.27;100837.56;5033620;28;11637;-77
2021/03/05 01:48:27;;;;;;;;;39.50;36.25;;;;;7.58;79.28;100840.41;5034904;28;11699;-76
2021/03/05 01:51:26;;;;;;;;;32.00;30.50;;;;;7.42;79.82;100841.84;5031557;28;11614;-76
2021/03/05 01:54:21;;;;;;;;;32.50;32.50;;;;;7.17;80.83;100844.00;5032039;28;11627;-76
2021/03/05 01:57:17;;;;;;;;;41.00;36.00;;;;;7.47;80.32;100850.84;5031523;28;11632;-76
2021/03/05 02:00:17;;;;;;;;;29.25;27.75;;;;;7.61;79.73;100842.56;5032339;28;11616;-76
2021/03/05 02:03:13;;;;;;;;;33.50;27.00;;;;;7.38;81.66;100849.09;5030915;28;12395;-76
2021/03/05 02:05:54;;;;;;;;;30.25;30.25;;;;;7.49;81.04;100843.06;5016579;28;11715;-76
2021/03/05 02:08:37;;;;;;;;;36.25;34.00;;;;;7.33;81.20;100852.75;5032884;28;11609;-76
2021/03/05 02:11:34;;;;;;;;;44.00;40.00;;;;;7.56;80.78;100850.94;5032275;28;11648;-75
2021/03/05 02:14:31;;;;;;;;;38.50;34.00;;;;;7.68;80.08;100856.75;5030554;28;12272;-76
2021/03/05 02:17:37;;;;;;;;;36.75;36.75;;;;;7.44;80.96;100856.16;5031107;28;11631;-76
2021/03/05 02:21:21;;;;;;;;;36.75;36.00;;;;;7.38;81.01;100857.38;5017587;28;11675;-76
2021/03/05 02:24:32;;;;;;;;;33.75;32.50;;;;;7.29;81.94;100854.50;5033146;28;11688;-75
2021/03/05 02:27:47;;;;;;;;;36.50;36.00;;;;;7.52;80.86;100847.97;5031112;28;11753;-75
2021/03/05 02:30:55;;;;;;;;;37.50;32.00;;;;;7.66;80.72;100850.69;5032550;28;11637;-76
2021/03/05 02:34:01;;;;;;;;;37.25;35.00;;;;;7.63;80.62;100856.03;5019121;28;11632;-75
2021/03/05 02:37:11;;;;;;;;;45.50;41.25;;;;;7.55;80.81;100846.53;5030520;28;11739;-76
2021/03/05 02:40:08;;;;;;;;;40.25;36.50;;;;;7.13;82.45;100848.47;5033953;28;11681;-76
2021/03/05 02:43:07;;;;;;;;;41.75;38.00;;;;;7.31;82.20;100844.00;5031739;28;11644;-77
2021/03/05 02:46:07;;;;;;;;;43.50;37.75;;;;;7.52;81.07;100844.41;5031764;28;11810;-75
2021/03/05 02:49:04;;;;;;;;;42.00;39.25;;;;;7.31;82.05;100849.50;5028512;28;11573;-76
2021/03/05 02:52:05;;;;;;;;;40.00;36.75;;;;;7.30;81.88;100858.88;5031376;28;12512;-76
2021/03/05 02:55:04;;;;;;;;;38.75;35.25;;;;;7.46;81.30;100853.91;5017211;28;11629;-76
2021/03/05 02:58:02;;;;;;;;;41.00;39.50;;;;;7.46;81.23;100853.91;5033427;28;11687;-76
2021/03/05 03:00:57;;;;;;;;;44.25;41.00;;;;;7.45;81.29;100847.56;5017450;28;11734;-77
2021/03/05 03:03:55;;;;;;;;;48.75;42.50;;;;;7.49;81.03;100854.09;5028913;28;11603;-76
2021/03/05 03:06:51;;;;;;;;;48.75;43.00;;;;;7.58;80.13;100856.94;5029329;28;11747;-75
2021/03/05 03:09:47;;;;;;;;;52.75;42.50;;;;;7.50;80.06;100850.22;5031366;28;11624;-76
2021/03/05 03:12:46;;;;;;;;;39.75;37.50;;;;;7.59;80.09;100857.75;5030995;28;11638;-75
2021/03/05 03:15:58;;;;;;;;;44.00;38.75;;;;;7.63;80.23;100854.09;5019145;28;11611;-76
2021/03/05 03:18:28;;;;;;;;;52.25;44.25;;;;;7.62;79.91;100854.41;5032601;28;11723;-76
2021/03/05 03:21:00;;;;;;;;;45.25;39.00;;;;;7.47;80.63;100859.09;5033666;28;11654;-75
2021/03/05 03:23:28;;;;;;;;;47.25;41.75;;;;;7.61;80.23;100861.84;5032615;28;11719;-75
2021/03/05 03:25:59;;;;;;;;;51.25;41.75;;;;;7.62;79.65;100859.91;5014888;28;11638;-76
2021/03/05 03:28:28;;;;;;;;;48.50;38.75;;;;;7.50;80.00;100852.97;5015240;28;11636;-77
2021/03/05 03:30:56;;;;;;;;;46.25;40.50;;;;;7.47;80.02;100861.03;5032668;28;12383;-77
2021/03/05 03:33:23;;;;;;;;;55.50;43.25;;;;;7.52;80.33;100858.19;5015602;28;11664;-76
2021/03/05 03:35:52;;;;;;;;;39.25;38.50;;;;;7.47;80.19;100858.28;5030017;28;11620;-75
2021/03/05 03:38:22;;;;;;;;;50.25;44.75;;;;;7.38;80.69;100865.63;5017352;28;11744;-76
2021/03/05 03:40:53;;;;;;;;;43.00;40.25;;;;;7.48;80.44;100859.91;5030353;28;11820;-76
2021/03/05 03:43:21;;;;;;;;;49.75;39.00;;;;;7.36;80.81;100868.69;5032560;28;11744;-75
2021/03/05 03:45:50;;;;;;;;;47.00;40.50;;;;;7.46;80.53;100862.16;5029712;28;12451;-76
2021/03/05 03:48:19;;;;;;;;;38.25;37.75;;;;;7.39;80.79;100859.00;5018843;28;11587;-75
2021/03/05 03:50:57;;;;;;;;;43.50;38.75;;;;;7.21;81.56;100855.22;5031814;28;11665;-75
2021/03/05 03:53:26;;;;;;;;;56.75;46.75;;;;;7.37;81.24;100862.06;5014495;28;11744;-75
2021/03/05 03:56:27;;;;;;;;;46.75;42.25;;;;;7.38;80.89;100860.94;5030192;28;11755;-75
2021/03/05 03:59:23;;;;;;;;;55.00;43.50;;;;;7.31;80.92;100854.19;5018095;28;11608;-75
2021/03/05 04:02:26;;;;;;;;;41.50;40.00;;;;;6.90;82.76;100855.78;5030146;28;11612;-75
2021/03/05 04:05:27;;;;;;;;;48.50;44.50;;;;;7.16;81.75;100861.63;5030449;28;11603;-76
2021/03/05 04:08:25;;;;;;;;;47.00;42.75;;;;;7.26;81.02;100860.59;5031774;28;11617;-76
2021/03/05 04:11:22;;;;;;;;;49.75;44.50;;;;;7.20;81.54;100856.31;5029939;28;11767;-76
2021/03/05 04:14:18;;;;;;;;;56.25;45.00;;;;;7.28;81.19;100857.53;5031533;28;11723;-76
2021/03/05 04:17:14;;;;;;;;;43.75;41.25;;;;;6.86;82.41;100851.16;5032442;28;11750;-76
2021/03/05 04:20:14;;;;;;;;;52.00;42.75;;;;;7.05;82.48;100849.16;5036424;28;11743;-76
2021/03/05 04:23:10;;;;;;;;;47.25;42.00;;;;;6.79;83.03;100840.56;5006577;28;11630;-76
2021/03/05 04:26:06;;;;;;;;;47.25;42.00;;;;;6.75;83.91;100838.72;5034123;28;12467;-76
2021/03/05 04:28:33;;;;;;;;;51.75;44.25;;;;;7.05;82.67;100832.66;5036701;28;11656;-76
2021/03/05 04:31:29;;;;;;;;;53.25;45.25;;;;;7.13;81.89;100831.13;5037147;28;11720;-77
2021/03/05 04:34:24;;;;;;;;;46.25;42.25;;;;;7.07;82.29;100832.38;5034012;28;11579;-75
2021/03/05 04:37:20;;;;;;;;;53.50;45.75;;;;;7.04;82.16;100843.97;5034353;28;11614;-75
2021/03/05 04:40:16;;;;;;;;;47.25;43.00;;;;;7.11;82.16;100847.94;5020451;28;12478;-77
2021/03/05 04:43:11;;;;;;;;;52.50;45.75;;;;;7.17;81.80;100848.69;5033050;28;11625;-77
2021/03/05 04:45:56;;;;;;;;;49.75;43.50;;;;;7.16;81.86;100853.38;5034954;28;11635;-77
2021/03/05 04:48:52;;;;;;;;;45.00;42.50;;;;;7.29;81.16;100853.69;5034100;28;11711;-77
2021/03/05 04:51:20;;;;;;;;;42.00;39.75;;;;;7.25;81.51;100861.72;5017719;28;11720;-78
2021/03/05 04:54:16;;;;;;;;;59.25;47.50;;;;;7.33;82.02;100860.19;5031683;28;11794;-79
2021/03/05 04:57:12;;;;;;;;;50.25;43.25;;;;;7.43;83.29;100866.31;5021316;28;11662;-80
2021/03/05 05:00:09;;;;;;;;;49.00;43.25;;;;;7.40;82.15;100860.63;5035434;28;11599;-78
2021/03/05 05:03:05;;;;;;;;;56.25;48.00;;;;;7.43;81.60;100866.31;5021067;28;11613;-79
2021/03/05 05:06:01;;;;;;;;;42.00;40.00;;;;;7.55;82.36;100868.56;5020880;28;11682;-79
2021/03/05 05:08:29;;;;;;;;;51.00;45.75;;;;;7.67;83.28;100876.31;5018560;28;12310;-79
2021/03/05 05:10:56;;;;;;;;;50.25;43.75;;;;;7.39;81.54;100878.25;5017916;28;11610;-78
2021/03/05 05:13:24;;;;;;;;;35.50;34.00;;;;;7.24;82.31;100880.16;5035219;28;11654;-79
2021/03/05 05:15:52;;;;;;;;;47.75;42.50;;;;;7.37;82.24;100875.81;5032495;28;11646;-79
2021/03/05 05:18:20;;;;;;;;;55.00;45.00;;;;;7.45;82.51;100880.59;5001948;28;11630;-79
2021/03/05 05:20:48;;;;;;;;;31.50;31.50;;;;;7.35;84.31;100896.47;5034482;28;11697;-78
2021/03/05 05:23:15;;;;;;;;;52.50;45.50;;;;;7.33;82.25;100896.78;5034693;28;11741;-78
2021/03/05 05:25:42;;;;;;;;;50.75;44.00;;;;;7.45;82.69;100888.84;5035004;28;11618;-79
2021/03/05 05:28:10;;;;;;;;;52.00;44.00;;;;;7.59;81.88;100902.63;5015228;28;11670;-78
2021/03/05 05:30:38;;;;;;;;;48.75;42.75;;;;;7.53;81.14;100915.66;5001411;28;11620;-79
2021/03/05 05:33:05;;;;;;;;;50.00;41.75;;;;;7.57;80.80;100915.84;5017178;28;12445;-78
2021/03/05 05:35:33;;;;;;;;;39.50;37.75;;;;;7.58;80.79;100914.72;5032931;28;11699;-78
2021/03/05 05:38:02;;;;;;;;;55.50;45.50;;;;;7.67;80.81;100928.63;5034352;28;11617;-79
2021/03/05 05:40:29;;;;;;;;;52.25;45.50;;;;;7.59;81.80;100930.16;5035351;28;12374;-78
2021/03/05 05:42:57;;;;;;;;;50.75;45.50;;;;;7.60;81.38;100931.78;5034812;28;11653;-78
2021/03/05 05:45:24;;;;;;;;;51.00;45.75;;;;;7.39;81.61;100938.78;5034778;28;11638;-79
2021/03/05 05:47:54;;;;;;;;;62.00;49.00;;;;;7.76;83.63;100933.09;5031546;28;11598;-79
2021/03/05 05:50:25;;;;;;;;;53.25;46.50;;;;;7.66;80.59;100937.97;5035041;28;12318;-79
2021/03/05 05:52:58;;;;;;;;;51.75;45.00;;;;;7.87;82.04;100936.47;5031790;28;11706;-79
2021/03/05 05:55:25;;;;;;;;;51.00;44.00;;;;;7.90;80.40;100935.88;5016624;28;11597;-79
2021/03/05 05:57:53;;;;;;;;;51.00;45.50;;;;;7.91;79.53;100931.97;5014173;28;11628;-78
2021/03/05 06:00:21;;;;;;;;;53.75;46.00;;;;;7.94;79.82;100934.09;5018833;28;11672;-79
2021/03/05 06:02:50;;;;;;;;;47.00;42.75;;;;;7.93;79.30;100938.00;5034802;28;11638;-79
2021/03/05 06:05:18;;;;;;;;;57.50;48.00;;;;;7.88;79.43;100942.78;5034490;28;11737;-79
2021/03/05 06:07:46;;;;;;;;;52.00;44.50;;;;;8.11;80.25;100936.22;4990494;28;11625;-76
2021/03/05 06:10:41;;;;;;;;;59.25;47.50;;;;;8.11;79.12;100943.69;5030830;28;11639;-78
2021/03/05 06:13:37;;;;;;;;;55.25;46.25;;;;;8.07;78.30;100941.56;5018853;28;11678;-78
2021/03/05 06:16:33;;;;;;;;;61.50;45.00;;;;;8.07;78.08;100952.56;5034947;28;11627;-76
2021/03/05 06:19:29;;;;;;;;;66.00;51.50;;;;;8.00;78.16;100956.88;5032210;28;11631;-77
2021/03/05 06:22:26;;;;;;;;;61.50;51.00;;;;;8.08;77.69;100965.22;5019664;28;11625;-78
2021/03/05 06:25:35;;;;;;;;;58.00;49.00;;;;;8.12;78.18;100962.66;5033218;28;11642;-78
2021/03/05 06:28:30;;;;;;;;;50.25;40.75;;;;;8.30;77.33;100972.75;5033203;28;11641;-78
2021/03/05 06:31:30;;;;;;;;;63.25;51.50;;;;;8.09;77.44;100969.59;5032557;28;11575;-79
2021/03/05 06:34:00;;;;;;;;;63.75;53.00;;;;;8.22;77.57;100967.16;5033483;28;11707;-78
2021/03/05 06:37:06;;;;;;;;;65.75;53.50;;;;;8.09;77.84;100960.53;5029220;28;11737;-79
2021/03/05 06:39:36;;;;;;;;;74.25;58.50;;;;;8.17;77.77;100962.56;5033906;28;11620;-78
2021/03/05 06:42:48;;;;;;;;;68.00;55.50;;;;;8.27;76.95;100962.31;5029513;28;11648;-78
2021/03/05 06:45:43;;;;;;;;;74.50;58.75;;;;;8.35;76.90;100960.81;5030816;28;11659;-78
2021/03/05 06:48:52;;;;;;;;;54.75;45.25;;;;;8.39;77.04;100961.03;5017257;28;11635;-78
2021/03/05 06:51:54;;;;;;;;;69.50;55.25;;;;;8.33;77.42;100952.00;5035090;28;11619;-77
2021/03/05 06:54:49;;;;;;;;;71.50;55.50;;;;;8.44;77.25;100966.44;5019127;28;11647;-78
2021/03/05 06:57:26;;;;;;;;;72.50;59.25;;;;;8.54;76.02;101002.84;5032837;28;12398;-78
2021/03/05 06:59:54;;;;;;;;;72.50;56.75;;;;;8.60;75.73;100971.28;5030154;28;11630;-80
2021/03/05 07:02:31;;;;;;;;;76.00;58.25;;;;;8.63;75.77;100983.63;5015429;28;11766;-78
2021/03/05 07:05:53;;;;;;;;;70.25;54.50;;;;;8.54;75.99;100993.75;5031604;28;11659;-78
2021/03/05 07:08:49;;;;;;;;;76.75;61.00;;;;;8.57;75.70;100996.69;5031483;28;11619;-77
2021/03/05 07:11:39;;;;;;;;;73.50;56.00;;;;;8.69;75.39;100985.16;5032651;28;12334;-78
2021/03/05 07:14:11;;;;;;;;;75.25;59.00;;;;;8.59;75.50;100983.44;5032059;28;12446;-80
2021/03/05 07:17:09;;;;;;;;;73.00;58.50;;;;;8.65;75.28;100967.56;5031153;28;11678;-78
2021/03/05 07:19:39;;;;;;;;;74.25;60.25;;;;;8.73;75.51;100966.84;5014498;28;12400;-78
2021/03/05 07:22:37;;;;;;;;;71.75;55.50;;;;;8.66;75.23;100969.22;5030577;28;11616;-78
2021/03/05 07:25:51;;;;;;;;;66.00;52.50;;;;;8.78;74.96;100976.94;5030012;28;11604;-77
2021/03/05 07:28:48;;;;;;;;;65.00;52.75;;;;;8.75;74.88;100967.34;5025171;28;11646;-78
2021/03/05 07:31:56;;;;;;;;;66.50;53.50;;;;;8.75;74.81;100966.56;5018416;28;12423;-78
2021/03/05 07:34:26;;;;;;;;;70.25;56.50;;;;;8.64;74.44;100961.25;5032058;28;11707;-79
2021/03/05 07:37:28;;;;;;;;;67.50;53.75;;;;;8.89;74.19;100959.84;5017755;28;11632;-78
2021/03/05 07:40:23;;;;;;;;;59.25;47.00;;;;;8.94;74.04;100955.31;5030752;28;12351;-77
2021/03/05 07:43:19;;;;;;;;;59.00;50.00;;;;;8.97;73.86;100960.19;5029953;28;11727;-77
2021/03/05 07:45:57;;;;;;;;;73.75;57.25;;;;;9.11;73.76;100955.44;5029945;28;11665;-78
2021/03/05 07:48:25;;;;;;;;;63.50;51.75;;;;;9.18;72.82;100950.28;5033636;28;11632;-78
2021/03/05 07:50:59;;;;;;;;;67.25;51.75;;;;;9.24;72.79;100945.47;5034374;28;11668;-78
2021/03/05 07:53:55;;;;;;;;;59.75;47.75;;;;;9.31;72.09;100943.88;5033025;28;11742;-78
2021/03/05 07:56:51;;;;;;;;;68.25;54.50;;;;;9.36;72.34;100954.00;5034843;28;11753;-78
2021/03/05 07:59:50;;;;;;;;;68.25;56.75;;;;;9.42;71.98;100948.00;5020396;28;11626;-79
2021/03/05 08:02:59;;;;;;;;;65.00;53.00;;;;;9.52;71.42;100946.94;5020809;28;11743;-78
2021/03/05 08:05:42;;;;;;;;;65.50;52.00;;;;;9.54;70.80;100952.94;5032873;28;11624;-76
2021/03/05 08:08:17;;;;;;;;;62.75;53.25;;;;;9.56;70.80;100947.09;5034329;28;11758;-78
2021/03/05 08:11:26;;;;;;;;;63.00;52.00;;;;;9.56;70.65;100949.84;5035798;28;11643;-78
2021/03/05 08:14:26;;;;;;;;;71.00;54.50;;;;;9.60;70.91;100946.16;5035607;28;11622;-77
2021/03/05 08:17:32;;;;;;;;;60.75;48.50;;;;;9.75;70.55;100948.50;5035120;28;11717;-77
2021/03/05 08:20:27;;;;;;;;;61.25;51.25;;;;;9.74;69.78;100963.44;5032302;28;11171;-77
2021/03/05 08:23:23;;;;;;;;;67.25;52.00;;;;;9.70;69.85;100954.16;5039174;28;11613;-77
2021/03/05 08:26:04;;;;;;;;;43.75;39.00;;;;;9.65;69.96;100953.47;5046811;28;11614;-76
2021/03/05 08:29:00;;;;;;;;;69.50;55.00;;;;;9.56;70.37;100952.63;5047800;28;11733;-76
2021/03/05 08:32:01;;;;;;;;;70.50;55.50;;;;;9.78;69.84;100957.25;5044137;28;11660;-77
2021/03/05 08:34:58;;;;;;;;;64.00;52.50;;;;;9.79;69.22;100951.41;5035600;28;11623;-77
2021/03/05 08:38:17;;;;;;;;;75.50;58.00;;;;;9.96;68.85;100945.94;5037314;28;11747;-79
2021/03/05 08:41:18;;;;;;;;;69.50;57.00;;;;;10.05;68.78;100953.47;5033725;28;11789;-77
2021/03/05 08:44:14;;;;;;;;;75.50;55.50;;;;;10.21;68.61;100949.13;5031209;28;12429;-78
2021/03/05 08:47:10;;;;;;;;;64.25;50.25;;;;;9.93;68.37;100959.59;5034656;28;11722;-78
2021/03/05 08:50:10;;;;;;;;;73.50;55.75;;;;;10.00;67.69;100968.25;5033971;28;11616;-78
2021/03/05 08:53:17;;;;;;;;;72.00;58.50;;;;;10.05;67.56;100962.56;5034244;28;11697;-78
2021/03/05 08:56:21;;;;;;;;;74.50;58.50;;;;;10.17;67.10;100950.88;5034363;28;11602;-78
2021/03/05 08:59:02;;;;;;;;;70.00;55.50;;;;;9.83;66.99;100952.41;5035421;28;11635;-77
2021/03/05 09:01:53;;;;;;;;;69.00;54.00;;;;;10.01;67.07;100953.28;5021668;28;11635;-80
2021/03/05 09:04:49;;;;;;;;;63.25;52.00;;;;;10.08;67.39;100952.81;5033472;28;11642;-77
2021/03/05 09:07:47;;;;;;;;;63.75;50.75;;;;;10.21;67.16;100954.66;5032700;28;11748;-78
2021/03/05 09:10:43;;;;;;;;;61.75;51.25;;;;;9.97;66.63;100963.38;5035217;28;11627;-77
2021/03/05 09:13:13;;;;;;;;;65.25;54.00;;;;;10.03;67.10;100949.06;5035342;28;11740;-77
2021/03/05 09:15:48;;;;;;;;;66.75;53.75;;;;;10.20;66.30;100947.50;5020039;28;11684;-77
2021/03/05 09:18:38;;;;;;;;;64.75;52.75;;;;;10.29;66.60;100963.00;5028331;28;11628;-76
2021/03/05 09:21:07;;;;;;;;;67.00;53.75;;;;;10.59;66.00;100963.19;5021010;28;11629;-75
2021/03/05 09:24:02;;;;;;;;;62.75;52.25;;;;;10.70;65.27;100958.16;5038906;28;11629;-77
2021/03/05 09:27:20;;;;;;;;;70.25;57.25;;;;;10.96;64.31;100963.66;5035570;28;11679;-77
2021/03/05 09:30:21;;;;;;;;;63.00;51.00;;;;;10.85;64.67;100960.41;5031479;28;11644;-78
2021/03/05 09:33:17;;;;;;;;;72.75;58.25;;;;;10.94;64.11;100958.47;5031402;28;11631;-78
2021/03/05 09:36:21;;;;;;;;;70.75;54.00;;;;;11.03;64.04;100962.03;5033416;28;11631;-77
2021/03/05 09:39:17;;;;;;;;;62.75;53.00;;;;;10.93;63.80;100967.91;5016454;28;12455;-78
2021/03/05 09:42:12;;;;;;;;;56.00;45.75;;;;;11.16;62.47;100964.94;5033787;28;11632;-77
2021/03/05 09:45:08;;;;;;;;;64.00;54.25;;;;;10.90;63.09;100956.69;5033315;28;11609;-77
2021/03/05 09:47:47;;;;;;;;;66.75;55.25;;;;;10.90;63.40;100963.03;5034516;28;11638;-77
2021/03/05 09:50:19;;;;;;;;;67.75;54.75;;;;;11.32;62.42;100957.75;5017172;28;11673;-78
2021/03/05 09:52:50;;;;;;;;;65.50;52.25;;;;;11.59;61.44;100962.09;5034577;28;11682;-76
2021/03/05 09:55:30;;;;;;;;;64.75;53.00;;;;;11.54;61.42;100953.94;5035636;28;11644;-77
2021/03/05 09:58:12;;;;;;;;;67.50;55.50;;;;;11.56;61.42;100957.19;5031935;28;11632;-78
2021/03/05 10:00:39;;;;;;;;;67.25;54.75;;;;;11.82;60.78;100962.69;5032508;28;11614;-77
2021/03/05 10:03:11;;;;;;;;;62.50;51.75;;;;;11.68;61.24;100962.88;5034815;28;11631;-77
2021/03/05 10:05:43;;;;;;;;;66.25;54.50;;;;;11.67;60.85;100961.25;5032944;28;11650;-77
2021/03/05 10:08:17;;;;;;;;;68.00;56.00;;;;;11.89;60.33;100966.56;5033940;28;11663;-76
2021/03/05 10:11:03;;;;;;;;;65.50;53.50;;;;;11.92;60.99;100970.63;5032948;28;11622;-78
2021/03/05 10:13:52;;;;;;;;;68.25;55.00;;;;;11.87;60.98;100959.72;5016525;28;11764;-77
2021/03/05 10:16:26;;;;;;;;;71.50;54.00;;;;;12.06;60.15;100959.31;5015046;28;11778;-77
2021/03/05 10:19:11;;;;;;;;;75.00;56.00;;;;;12.07;59.96;100958.16;5034602;28;11688;-78
2021/03/05 10:21:47;;;;;;;;;69.00;55.00;;;;;12.00;59.35;100974.50;5033323;28;12413;-75
2021/03/05 10:24:19;;;;;;;;;73.50;57.25;;;;;12.06;59.59;100960.13;5044264;28;11642;-76
2021/03/05 10:29:57;;;;;;;;;74.50;59.00;;;;;11.85;59.85;100940.66;5032800;28;11705;-77
2021/03/05 10:32:25;;;;;;;;;64.25;52.00;;;;;11.79;59.98;100947.47;5031210;28;11629;-78
2021/03/05 10:35:21;;;;;;;;;75.75;58.00;;;;;11.41;61.52;100953.81;5028596;28;11750;-77
2021/03/05 10:38:18;;;;;;;;;67.25;54.50;;;;;11.21;61.70;100948.19;5022061;28;11656;-77
2021/03/05 10:41:14;;;;;;;;;69.50;54.25;;;;;11.39;61.68;100958.06;5016744;28;12533;-77
2021/03/05 10:44:09;;;;;;;;;69.00;55.00;;;;;11.15;62.76;100936.47;5030410;28;11670;-78
2021/03/05 10:47:11;;;;;;;;;69.75;56.25;;;;;11.19;62.86;100950.44;5016827;28;11632;-77
2021/03/05 10:50:01;;;;;;;;;68.75;54.75;;;;;11.10;63.30;100945.72;5031098;28;11819;-78
2021/03/05 10:52:56;;;;;;;;;68.00;51.00;;;;;10.91;63.50;100934.22;5032105;28;11645;-77
2021/03/05 10:55:52;;;;;;;;;68.25;52.25;;;;;11.32;62.86;100935.59;5029253;28;11704;-77
2021/03/05 10:58:19;;;;;;;;;62.50;50.00;;;;;11.47;62.43;100931.50;5031891;28;11705;-77
2021/03/05 11:01:16;;;;;;;;;59.25;49.25;;;;;11.44;62.20;100932.97;5033032;28;12469;-77
2021/03/05 11:03:43;;;;;;;;;57.50;49.50;;;;;11.46;62.55;100925.13;5033647;28;11597;-76
2021/03/05 11:06:39;;;;;;;;;57.50;48.25;;;;;11.54;62.48;100920.72;5030191;28;11652;-77
2021/03/05 11:09:07;;;;;;;;;58.75;48.00;;;;;11.58;62.42;100927.22;5031302;28;11577;-77
2021/03/05 11:12:04;;;;;;;;;71.00;53.50;;;;;11.22;63.06;100922.13;5030086;28;11544;-76
2021/03/05 11:15:00;;;;;;;;;60.75;48.75;;;;;11.54;62.25;100921.53;5031139;28;11641;-75
2021/03/05 11:17:31;;;;;;;;;60.00;50.50;;;;;11.49;62.75;100927.22;5034602;28;11667;-78
2021/03/05 11:19:59;;;;;;;;;62.00;47.75;;;;;11.34;63.08;100923.03;5031197;28;11573;-78
2021/03/05 11:22:27;;;;;;;;;62.00;49.25;;;;;11.82;62.14;100915.56;5021725;28;11624;-77
2021/03/05 11:24:54;;;;;;;;;69.25;52.25;;;;;11.94;60.91;100916.47;5032283;28;12397;-76
2021/03/05 11:27:49;;;;;;;;;65.00;51.75;;;;;11.96;61.14;100919.75;5028256;28;11786;-77
2021/03/05 11:30:19;;;;;;;;;65.50;54.00;;;;;12.02;60.38;100925.06;5016682;28;11564;-77
2021/03/05 11:32:47;;;;;;;;;63.25;51.00;;;;;11.94;60.69;100929.53;5033030;28;11700;-77
2021/03/05 11:35:14;;;;;;;;;72.25;56.75;;;;;11.46;61.71;100924.31;5015678;28;11627;-77
2021/03/05 11:37:42;;;;;;;;;65.25;52.50;;;;;11.69;61.31;100934.00;5033316;28;11637;-78
2021/03/05 11:40:11;;;;;;;;;68.00;52.25;;;;;11.67;61.01;100944.63;5015112;28;11685;-77
2021/03/05 11:42:38;;;;;;;;;61.25;51.50;;;;;11.61;61.67;100943.16;5029697;28;11581;-76
2021/03/05 11:45:06;;;;;;;;;67.00;52.75;;;;;11.73;61.50;100945.22;5032347;28;11739;-77
2021/03/05 11:47:34;;;;;;;;;61.00;50.75;;;;;11.75;61.26;100940.19;5032564;28;12450;-77
2021/03/05 11:50:06;;;;;;;;;61.50;50.50;;;;;11.42;61.98;100938.00;5015253;28;11578;-77
2021/03/05 11:52:34;;;;;;;;;61.25;50.00;;;;;11.52;61.70;100940.44;5031819;28;12352;-74
2021/03/05 11:55:02;;;;;;;;;64.00;51.75;;;;;11.61;61.68;100943.97;5033149;28;11628;-76
2021/03/05 11:57:30;;;;;;;;;67.25;54.50;;;;;11.51;62.00;100936.03;5015790;28;11603;-78
2021/03/05 11:59:57;;;;;;;;;63.75;52.00;;;;;11.39;61.90;100942.25;5015534;28;11623;-77
2021/03/05 12:02:24;;;;;;;;;64.00;52.75;;;;;11.33;62.19;100946.34;5015019;28;11624;-77
2021/03/05 12:04:51;;;;;;;;;62.50;51.75;;;;;11.48;62.00;100941.41;5032035;28;11655;-77
2021/03/05 12:07:47;;;;;;;;;54.00;46.00;;;;;11.18;62.88;100941.31;5026018;28;11657;-78
2021/03/05 12:10:28;;;;;;;;;59.25;48.00;;;;;11.34;62.35;100930.53;5031004;28;11644;-77
2021/03/05 12:12:55;;;;;;;;;61.50;49.25;;;;;11.21;62.56;100939.88;5031597;28;11562;-77
2021/03/05 12:15:22;;;;;;;;;56.50;46.50;;;;;11.26;62.56;100939.69;5014703;28;11654;-78
2021/03/05 12:17:59;;;;;;;;;62.00;50.25;;;;;10.99;63.21;100932.59;5030770;28;12320;-76
2021/03/05 12:20:26;;;;;;;;;56.25;48.75;;;;;10.85;63.45;100928.03;5032846;28;11730;-76
2021/03/05 12:22:54;;;;;;;;;65.00;52.50;;;;;10.94;63.54;100930.78;5032492;28;11557;-76
2021/03/05 12:25:35;;;;;;;;;60.25;50.25;;;;;10.90;63.71;100931.78;5030916;28;11627;-78
2021/03/05 12:28:04;;;;;;;;;68.50;52.00;;;;;10.81;63.61;100929.00;5030542;28;11729;-77
2021/03/05 12:31:00;;;;;;;;;65.25;52.50;;;;;10.65;64.43;100933.41;5015735;28;11729;-76
2021/03/05 12:33:28;;;;;;;;;63.00;51.50;;;;;10.74;64.32;100935.03;5031893;28;11662;-78
2021/03/05 12:36:24;;;;;;;;;63.00;52.75;;;;;10.66;64.67;100929.50;5032838;28;12529;-76
2021/03/05 12:39:20;;;;;;;;;63.25;52.25;;;;;10.48;65.23;100934.22;5032398;28;11687;-76
2021/03/05 12:42:16;;;;;;;;;64.50;53.50;;;;;10.71;64.70;100946.75;5020193;28;11628;-79
2021/03/05 12:45:12;;;;;;;;;92.75;81.75;;;;;10.74;64.75;100943.34;5036036;28;11647;-78
2021/03/05 12:48:08;;;;;;;;;72.50;58.25;;;;;10.79;64.42;100942.34;5021447;28;11672;-78